Time,TemperatureF,DewpointF,PressureIn,WindDirection,WindDirectionDegrees,WindSpeedMPH,WindSpeedGustMPH,Humidity,HourlyPrecipIn,Conditions,Clouds,dailyrainin,SoftwareType,DateUTC
2013-04-12 00:02:00,53.9,52.0,29.58,North,351,4.0,-999.0,92,-99.99,,,0.01,weatherlink.com 1.10,2013-04-12 04:02:00,
2013-04-12 00:17:00,53.5,51.0,29.57,SW,214,8.0,-999.0,91,-99.99,,,0.10,weatherlink.com 1.10,2013-04-12 04:17:00,
2013-04-12 00:32:00,52.5,50.0,29.56,NNW,328,1.0,-999.0,92,-99.99,,,0.18,weatherlink.com 1.10,2013-04-12 04:32:00,
2013-04-12 00:47:00,52.0,50.0,29.55,ESE,122,3.0,-999.0,94,-99.99,,,0.26,weatherlink.com 1.10,2013-04-12 04:47:00,
2013-04-12 01:17:00,52.0,51.0,29.54,SSW,207,3.0,-999.0,96,-99.99,,,0.42,weatherlink.com 1.10,2013-04-12 05:17:00,
2013-04-12 01:32:00,52.2,51.0,29.54,SSW,203,5.0,-999.0,97,-99.99,,,0.50,weatherlink.com 1.10,2013-04-12 05:32:00,
2013-04-12 02:02:00,51.4,50.0,29.48,SSW,209,5.0,-999.0,95,-99.99,,,0.66,weatherlink.com 1.10,2013-04-12 06:02:00,
2013-04-12 02:17:00,52.0,50.0,29.48,ESE,103,1.0,-999.0,92,-99.99,,,0.73,weatherlink.com 1.10,2013-04-12 06:17:00,
2013-04-12 02:32:00,52.9,50.0,29.48,SW,217,20.0,-999.0,89,-99.99,,,0.79,weatherlink.com 1.10,2013-04-12 06:32:00,
2013-04-12 02:47:00,52.9,50.0,29.46,WSW,244,5.0,-999.0,91,-99.99,,,0.84,weatherlink.com 1.10,2013-04-12 06:47:00,
2013-04-12 03:02:00,52.9,50.0,29.45,SW,215,3.0,-999.0,89,-99.99,,,0.89,weatherlink.com 1.10,2013-04-12 07:02:00,
2013-04-12 03:17:00,52.9,50.0,29.44,SE,142,4.0,-999.0,91,-99.99,,,0.92,weatherlink.com 1.10,2013-04-12 07:17:00,
2013-04-12 03:32:00,52.9,51.0,29.44,SW,227,13.0,-999.0,93,-99.99,,,0.92,weatherlink.com 1.10,2013-04-12 07:32:00,
2013-04-12 03:47:00,52.6,50.0,29.45,ESE,104,9.0,-999.0,92,-99.99,,,0.95,weatherlink.com 1.10,2013-04-12 07:47:00,
2013-04-12 04:02:00,52.0,50.0,29.44,NNW,346,7.0,-999.0,93,-99.99,,,0.98,weatherlink.com 1.10,2013-04-12 08:02:00,
2013-04-12 04:17:00,52.8,52.0,29.44,NNW,334,8.0,-999.0,95,-99.99,,,1.01,weatherlink.com 1.10,2013-04-12 08:17:00,
2013-04-12 04:32:00,53.2,52.0,29.43,East,96,3.0,-999.0,95,-99.99,,,1.03,weatherlink.com 1.10,2013-04-12 08:32:00,
2013-04-12 04:47:00,53.3,52.0,29.43,SW,219,5.0,-999.0,94,-99.99,,,1.03,weatherlink.com 1.10,2013-04-12 08:47:00,
2013-04-12 05:02:00,53.5,52.0,29.44,East,101,4.0,-999.0,94,-99.99,,,1.03,weatherlink.com 1.10,2013-04-12 09:02:00,
2013-04-12 05:17:00,53.6,52.0,29.46,WSW,249,13.0,-999.0,93,-99.99,,,1.03,weatherlink.com 1.10,2013-04-12 09:17:00,
2013-04-12 05:32:00,53.6,51.0,29.46,South,182,4.0,-999.0,92,-99.99,,,1.03,weatherlink.com 1.10,2013-04-12 09:32:00,
2013-04-12 05:47:00,53.5,51.0,29.47,North,355,5.0,-999.0,92,-99.99,,,1.03,weatherlink.com 1.10,2013-04-12 09:47:00,
2013-04-12 06:02:00,53.3,51.0,29.48,SSW,208,0.0,-999.0,92,-99.99,,,1.03,weatherlink.com 1.10,2013-04-12 10:02:00,
2013-04-12 06:17:00,53.2,51.0,29.48,SE,142,10.0,-999.0,92,-99.99,,,1.03,weatherlink.com 1.10,2013-04-12 10:17:00,
2013-04-12 06:32:00,53.2,51.0,29.50,NW,310,6.0,-999.0,91,-99.99,,,1.03,weatherlink.com 1.10,2013-04-12 10:32:00,
2013-04-12 06:47:00,53.2,51.0,29.50,East,84,3.0,-999.0,91,-99.99,,,1.03,weatherlink.com 1.10,2013-04-12 10:47:00,
2013-04-12 07:02:00,52.8,51.0,29.50,SSW,205,9.0,-999.0,93,-99.99,,,1.04,weatherlink.com 1.10,2013-04-12 11:02:00,
2013-04-12 07:17:00,52.5,51.0,29.52,WNW,296,8.0,-999.0,93,-99.99,,,1.07,weatherlink.com 1.10,2013-04-12 11:17:00,
2013-04-12 07:31:00,52.2,51.0,29.54,NNW,327,3.0,-999.0,94,-99.99,,,1.08,weatherlink.com 1.10,2013-04-12 11:31:00,
2013-04-12 07:47:00,51.3,50.0,29.54,NW,311,3.0,-999.0,94,-99.99,,,1.09,weatherlink.com 1.10,2013-04-12 11:47:00,
2013-04-12 08:03:00,50.7,49.0,29.55,NE,42,0.0,-999.0,95,-99.99,,,1.09,weatherlink.com 1.10,2013-04-12 12:03:00,
2013-04-12 08:17:00,50.4,49.0,29.56,SSE,163,3.0,-999.0,95,-99.99,,,1.09,weatherlink.com 1.10,2013-04-12 12:17:00,
2013-04-12 08:33:00,50.4,49.0,29.57,ESE,112,0.0,-999.0,93,-99.99,,,1.09,weatherlink.com 1.10,2013-04-12 12:33:00,
2013-04-12 08:47:00,50.4,48.0,29.57,North,355,3.0,-999.0,92,-99.99,,,1.09,weatherlink.com 1.10,2013-04-12 12:47:00,
2013-04-12 09:02:00,50.1,48.0,29.58,ENE,76,5.0,-999.0,92,-99.99,,,1.09,weatherlink.com 1.10,2013-04-12 13:02:00,
2013-04-12 09:17:00,50.4,49.0,29.59,ESE,107,2.0,-999.0,93,-99.99,,,1.09,weatherlink.com 1.10,2013-04-12 13:17:00,
2013-04-12 09:33:00,51.1,48.0,29.58,NW,325,7.0,-999.0,89,-99.99,,,1.09,weatherlink.com 1.10,2013-04-12 13:33:00,
2013-04-12 09:48:00,52.5,48.0,29.58,North,11,2.0,-999.0,85,-99.99,,,1.09,weatherlink.com 1.10,2013-04-12 13:48:00,
2013-04-12 10:03:00,53.5,49.0,29.57,ESE,121,0.0,-999.0,83,-99.99,,,1.09,weatherlink.com 1.10,2013-04-12 14:03:00,
2013-04-12 10:18:00,52.6,48.0,29.57,NW,305,4.0,-999.0,83,-99.99,,,1.09,weatherlink.com 1.10,2013-04-12 14:18:00,
2013-04-12 10:33:00,52.2,47.0,29.59,NW,323,5.0,-999.0,81,-99.99,,,1.09,weatherlink.com 1.10,2013-04-12 14:33:00,
2013-04-12 10:48:00,52.8,47.0,29.59,NE,56,3.0,-999.0,82,-99.99,,,1.09,weatherlink.com 1.10,2013-04-12 14:48:00,
2013-04-12 11:03:00,53.2,45.0,29.59,WSW,243,0.0,-999.0,75,-99.99,,,1.09,weatherlink.com 1.10,2013-04-12 15:03:00,
2013-04-12 11:18:00,53.3,44.0,29.61,SW,233,6.0,-999.0,72,-99.99,,,1.09,weatherlink.com 1.10,2013-04-12 15:18:00,
2013-04-12 11:33:00,53.5,44.0,29.62,SW,224,5.0,-999.0,71,-99.99,,,1.09,weatherlink.com 1.10,2013-04-12 15:33:00,
2013-04-12 11:48:00,54.5,45.0,29.60,WNW,284,5.0,-999.0,71,-99.99,,,1.09,weatherlink.com 1.10,2013-04-12 15:48:00,
2013-04-12 12:03:00,54.4,40.0,29.60,West,264,8.0,-999.0,59,-99.99,,,1.09,weatherlink.com 1.10,2013-04-12 16:03:00,
2013-04-12 12:18:00,54.5,40.0,29.63,WSW,246,11.0,-999.0,59,-99.99,,,1.09,weatherlink.com 1.10,2013-04-12 16:18:00,
2013-04-12 12:33:00,54.8,39.0,29.63,WNW,289,6.0,-999.0,56,-99.99,,,1.09,weatherlink.com 1.10,2013-04-12 16:33:00,
2013-04-12 12:48:00,54.7,39.0,29.62,SSW,202,3.0,-999.0,55,-99.99,,,1.09,weatherlink.com 1.10,2013-04-12 16:48:00,
2013-04-12 13:03:00,56.2,37.0,29.62,WSW,239,6.0,-999.0,48,-99.99,,,1.09,weatherlink.com 1.10,2013-04-12 17:03:00,
2013-04-12 13:18:00,56.5,38.0,29.61,SSW,213,8.0,-999.0,50,-99.99,,,1.09,weatherlink.com 1.10,2013-04-12 17:18:00,
2013-04-12 13:33:00,57.5,37.0,29.61,ENE,67,3.0,-999.0,46,-99.99,,,1.09,weatherlink.com 1.10,2013-04-12 17:33:00,
2013-04-12 13:48:00,57.0,35.0,29.62,SSW,208,3.0,-999.0,44,-99.99,,,1.09,weatherlink.com 1.10,2013-04-12 17:48:00,
2013-04-12 15:33:00,57.5,33.0,29.63,WSW,242,10.0,-999.0,39,-99.99,,,1.09,weatherlink.com 1.10,2013-04-12 19:33:00,
2013-04-12 15:48:00,57.3,32.0,29.63,North,355,1.0,-999.0,38,-99.99,,,1.09,weatherlink.com 1.10,2013-04-12 19:48:00,
2013-04-12 16:03:00,56.7,30.0,29.63,SW,218,7.0,-999.0,37,-99.99,,,1.09,weatherlink.com 1.10,2013-04-12 20:03:00,
2013-04-12 16:18:00,57.8,33.0,29.62,SW,231,3.0,-999.0,39,-99.99,,,1.09,weatherlink.com 1.10,2013-04-12 20:18:00,
2013-04-12 16:33:00,55.7,33.0,29.64,SW,236,6.0,-999.0,42,-99.99,,,1.09,weatherlink.com 1.10,2013-04-12 20:33:00,
2013-04-12 16:48:00,56.7,34.0,29.64,SE,131,2.0,-999.0,42,-99.99,,,1.09,weatherlink.com 1.10,2013-04-12 20:48:00,
2013-04-12 17:03:00,57.0,33.0,29.64,SE,140,0.0,-999.0,41,-99.99,,,1.09,weatherlink.com 1.10,2013-04-12 21:03:00,
2013-04-12 17:18:00,56.2,33.0,29.64,East,82,0.0,-999.0,41,-99.99,,,1.09,weatherlink.com 1.10,2013-04-12 21:18:00,
2013-04-12 17:33:00,55.7,34.0,29.64,SW,216,2.0,-999.0,44,-99.99,,,1.09,weatherlink.com 1.10,2013-04-12 21:33:00,
2013-04-12 17:48:00,55.0,33.0,29.64,SSW,209,7.0,-999.0,44,-99.99,,,1.09,weatherlink.com 1.10,2013-04-12 21:48:00,
2013-04-12 18:03:00,53.8,32.0,29.66,WSW,250,3.0,-999.0,44,-99.99,,,1.09,weatherlink.com 1.10,2013-04-12 22:03:00,
2013-04-12 18:18:00,54.4,33.0,29.65,North,5,1.0,-999.0,45,-99.99,,,1.09,weatherlink.com 1.10,2013-04-12 22:18:00,
2013-04-12 18:33:00,54.2,33.0,29.65,WSW,252,2.0,-999.0,44,-99.99,,,1.09,weatherlink.com 1.10,2013-04-12 22:33:00,
2013-04-12 18:48:00,53.1,32.0,29.66,WNW,297,0.0,-999.0,44,-99.99,,,1.09,weatherlink.com 1.10,2013-04-12 22:48:00,
2013-04-12 19:03:00,51.1,31.0,29.68,SW,223,0.0,-999.0,47,-99.99,,,1.09,weatherlink.com 1.10,2013-04-12 23:03:00,
2013-04-12 19:18:00,50.1,32.0,29.70,WNW,292,0.0,-999.0,50,-99.99,,,1.09,weatherlink.com 1.10,2013-04-12 23:18:00,
2013-04-12 19:33:00,49.8,32.0,29.70,South,175,0.0,-999.0,50,-99.99,,,1.09,weatherlink.com 1.10,2013-04-12 23:33:00,
2013-04-12 19:48:00,48.9,29.0,29.71,SW,224,2.0,-999.0,46,-99.99,,,1.09,weatherlink.com 1.10,2013-04-12 23:48:00,
2013-04-12 20:03:00,47.9,31.0,29.72,NNW,327,2.0,-999.0,52,-99.99,,,1.09,weatherlink.com 1.10,2013-04-13 00:03:00,
2013-04-12 20:18:00,47.0,32.0,29.74,NNW,327,2.0,-999.0,56,-99.99,,,1.09,weatherlink.com 1.10,2013-04-13 00:18:00,
2013-04-12 20:33:00,45.8,32.0,29.74,WSW,258,4.0,-999.0,59,-99.99,,,1.09,weatherlink.com 1.10,2013-04-13 00:33:00,
2013-04-12 20:48:00,45.2,32.0,29.75,West,259,5.0,-999.0,61,-99.99,,,1.09,weatherlink.com 1.10,2013-04-13 00:48:00,
2013-04-12 21:03:00,45.2,33.0,29.77,West,268,2.0,-999.0,62,-99.99,,,1.09,weatherlink.com 1.10,2013-04-13 01:03:00,
2013-04-12 21:18:00,44.8,31.0,29.75,WSW,244,1.0,-999.0,60,-99.99,,,1.09,weatherlink.com 1.10,2013-04-13 01:18:00,
2013-04-12 21:33:00,44.6,31.0,29.76,West,274,2.0,-999.0,59,-99.99,,,1.09,weatherlink.com 1.10,2013-04-13 01:33:00,
2013-04-12 21:48:00,43.5,32.0,29.76,SSW,196,9.0,-999.0,63,-99.99,,,1.09,weatherlink.com 1.10,2013-04-13 01:48:00,
2013-04-12 22:03:00,42.9,31.0,29.78,SSW,210,1.0,-999.0,64,-99.99,,,1.09,weatherlink.com 1.10,2013-04-13 02:03:00,
2013-04-12 22:18:00,42.6,31.0,29.79,SW,225,6.0,-999.0,65,-99.99,,,1.09,weatherlink.com 1.10,2013-04-13 02:18:00,
2013-04-12 22:33:00,42.1,31.0,29.81,WNW,286,4.0,-999.0,66,-99.99,,,1.09,weatherlink.com 1.10,2013-04-13 02:33:00,
2013-04-12 22:48:00,42.1,31.0,29.81,WSW,250,5.0,-999.0,66,-99.99,,,1.09,weatherlink.com 1.10,2013-04-13 02:48:00,
2013-04-12 23:03:00,41.9,32.0,29.81,WSW,244,2.0,-999.0,67,-99.99,,,1.09,weatherlink.com 1.10,2013-04-13 03:03:00,
2013-04-12 23:18:00,41.6,31.0,29.80,West,274,5.0,-999.0,66,-99.99,,,1.09,weatherlink.com 1.10,2013-04-13 03:18:00,
2013-04-12 23:33:00,41.2,31.0,29.81,SW,235,8.0,-999.0,68,-99.99,,,1.09,weatherlink.com 1.10,2013-04-13 03:33:00,
2013-04-12 23:48:00,40.9,31.0,29.81,SW,225,6.0,-999.0,68,-99.99,,,1.09,weatherlink.com 1.10,2013-04-13 03:48:00,